Psebay, Russia
Current Conditions -  °F | °C
As of 8:00 PM on Friday 24 Oct 2014 (Local Time) from URSS Reporting Station
Overcast Overcast  
Wind Chill: 63°   Ceiling: 12000
Heat Index: 63°   Visibility: 6mi
Dew Point: 54°   Wind: 9mph
Humidity: 72%   Direction: 70°ENE
Pressure: 29.94"   Gusts: NA
Location:  44.11°N, 40.77°E
Report Text: URSS 241700Z 07004MPS 9999 OVC120 17/12 Q1014 NOSIG RMKR02/05002MPS QFE759 06000070 02000070
Loading
Personal Weather Stations






























Interactive Weather Map
Tropical Storm Tracking
New forecast layout! Learn more

10-Day Weather Forecast

Advertisements
Track Severe Weather on mobile